sensor_id;sensor_type;location;lat;lon;timestamp;temperature;humidity
20650;DHT22;10484;48.736;9.332;2022-11-02T00:01:52;9.20;1.00
20650;DHT22;10484;48.736;9.332;2022-11-02T00:04:18;9.20;1.00
20650;DHT22;10484;48.736;9.332;2022-11-02T00:06:43;9.10;1.00
20650;DHT22;10484;48.736;9.332;2022-11-02T00:09:09;9.10;1.00
20650;DHT22;10484;48.736;9.332;2022-11-02T00:11:35;9.10;1.00
20650;DHT22;10484;48.736;9.332;2022-11-02T00:14:02;9.00;1.00
20650;DHT22;10484;48.736;9.332;2022-11-02T00:16:28;9.10;1.00
20650;DHT22;10484;48.736;9.332;2022-11-02T00:18:56;9.00;1.00
20650;DHT22;10484;48.736;9.332;2022-11-02T00:21:23;9.00;1.00
20650;DHT22;10484;48.736;9.332;2022-11-02T00:23:49;9.00;1.00
20650;DHT22;10484;48.736;9.332;2022-11-02T00:26:16;9.00;1.00
20650;DHT22;10484;48.736;9.332;2022-11-02T00:28:41;9.00;1.00
20650;DHT22;10484;48.736;9.332;2022-11-02T00:31:07;9.00;1.00
20650;DHT22;10484;48.736;9.332;2022-11-02T00:33:33;9.00;1.00
20650;DHT22;10484;48.736;9.332;2022-11-02T00:35:58;8.90;1.00
20650;DHT22;10484;48.736;9.332;2022-11-02T00:38:24;8.80;1.00
20650;DHT22;10484;48.736;9.332;2022-11-02T00:40:50;8.80;1.00
20650;DHT22;10484;48.736;9.332;2022-11-02T00:43:15;8.80;1.00
20650;DHT22;10484;48.736;9.332;2022-11-02T00:45:41;8.70;1.00
20650;DHT22;10484;48.736;9.332;2022-11-02T00:48:06;8.80;1.00
20650;DHT22;10484;48.736;9.332;2022-11-02T00:50:32;8.70;1.00
20650;DHT22;10484;48.736;9.332;2022-11-02T00:52:58;8.70;1.00
20650;DHT22;10484;48.736;9.332;2022-11-02T00:55:23;8.60;1.00
20650;DHT22;10484;48.736;9.332;2022-11-02T00:57:49;8.60;1.00
20650;DHT22;10484;48.736;9.332;2022-11-02T01:00:15;8.60;1.00
20650;DHT22;10484;48.736;9.332;2022-11-02T01:02:41;8.60;1.00
20650;DHT22;10484;48.736;9.332;2022-11-02T01:05:07;8.50;1.00
20650;DHT22;10484;48.736;9.332;2022-11-02T01:07:34;8.60;1.00
20650;DHT22;10484;48.736;9.332;2022-11-02T01:09:59;8.50;1.00
20650;DHT22;10484;48.736;9.332;2022-11-02T01:12:25;8.50;1.00
20650;DHT22;10484;48.736;9.332;2022-11-02T01:14:51;8.50;1.00
20650;DHT22;10484;48.736;9.332;2022-11-02T01:17:17;8.50;1.00
20650;DHT22;10484;48.736;9.332;2022-11-02T01:19:43;8.40;1.00
20650;DHT22;10484;48.736;9.332;2022-11-02T01:22:09;8.40;1.00
20650;DHT22;10484;48.736;9.332;2022-11-02T01:24:36;8.40;1.00
20650;DHT22;10484;48.736;9.332;2022-11-02T01:27:01;8.40;1.00
20650;DHT22;10484;48.736;9.332;2022-11-02T01:29:27;8.40;1.00
20650;DHT22;10484;48.736;9.332;2022-11-02T01:31:53;8.40;1.00
20650;DHT22;10484;48.736;9.332;2022-11-02T01:34:19;8.40;1.00
20650;DHT22;10484;48.736;9.332;2022-11-02T01:36:45;8.30;1.00
20650;DHT22;10484;48.736;9.332;2022-11-02T01:39:13;8.30;1.00
20650;DHT22;10484;48.736;9.332;2022-11-02T01:41:39;8.30;1.00
20650;DHT22;10484;48.736;9.332;2022-11-02T01:44:32;8.30;1.00
20650;DHT22;10484;48.736;9.332;2022-11-02T01:47:07;8.20;1.00
20650;DHT22;10484;48.736;9.332;2022-11-02T01:49:39;8.20;1.00
20650;DHT22;10484;48.736;9.332;2022-11-02T01:52:12;8.20;1.00
20650;DHT22;10484;48.736;9.332;2022-11-02T01:54:47;8.20;1.00
20650;DHT22;10484;48.736;9.332;2022-11-02T01:57:16;8.30;1.00
20650;DHT22;10484;48.736;9.332;2022-11-02T02:02:19;8.20;1.00
20650;DHT22;10484;48.736;9.332;2022-11-02T02:04:48;8.20;1.00
20650;DHT22;10484;48.736;9.332;2022-11-02T02:07:15;8.20;1.00
20650;DHT22;10484;48.736;9.332;2022-11-02T02:09:41;8.20;1.00
20650;DHT22;10484;48.736;9.332;2022-11-02T02:12:07;8.20;1.00
20650;DHT22;10484;48.736;9.332;2022-11-02T02:14:33;8.20;1.00
20650;DHT22;10484;48.736;9.332;2022-11-02T02:25:47;8.10;1.00
20650;DHT22;10484;48.736;9.332;2022-11-02T02:31:55;8.10;1.00
20650;DHT22;10484;48.736;9.332;2022-11-02T02:37:07;8.10;1.00
20650;DHT22;10484;48.736;9.332;2022-11-02T02:39:56;8.10;1.00
20650;DHT22;10484;48.736;9.332;2022-11-02T02:42:42;8.10;1.00
20650;DHT22;10484;48.736;9.332;2022-11-02T02:45:16;8.00;1.00
20650;DHT22;10484;48.736;9.332;2022-11-02T02:47:50;8.00;1.00
20650;DHT22;10484;48.736;9.332;2022-11-02T02:50:24;8.00;1.00
20650;DHT22;10484;48.736;9.332;2022-11-02T02:52:51;8.00;1.00
20650;DHT22;10484;48.736;9.332;2022-11-02T02:55:21;8.00;1.00
20650;DHT22;10484;48.736;9.332;2022-11-02T02:57:48;7.90;1.00
20650;DHT22;10484;48.736;9.332;2022-11-02T03:00:16;7.90;1.00
20650;DHT22;10484;48.736;9.332;2022-11-02T03:02:44;8.00;1.00
20650;DHT22;10484;48.736;9.332;2022-11-02T03:05:27;7.90;1.00
20650;DHT22;10484;48.736;9.332;2022-11-02T03:07:54;7.90;1.00
20650;DHT22;10484;48.736;9.332;2022-11-02T03:10:28;7.90;1.00
20650;DHT22;10484;48.736;9.332;2022-11-02T03:15:47;7.90;1.00
20650;DHT22;10484;48.736;9.332;2022-11-02T03:21:04;7.80;1.00
20650;DHT22;10484;48.736;9.332;2022-11-02T03:23:45;7.80;1.00
20650;DHT22;10484;48.736;9.332;2022-11-02T03:26:29;7.90;1.00
20650;DHT22;10484;48.736;9.332;2022-11-02T03:37:12;7.90;1.00
20650;DHT22;10484;48.736;9.332;2022-11-02T03:39:49;7.80;1.00
20650;DHT22;10484;48.736;9.332;2022-11-02T03:42:21;7.80;1.00
20650;DHT22;10484;48.736;9.332;2022-11-02T03:44:55;7.80;1.00
20650;DHT22;10484;48.736;9.332;2022-11-02T03:47:22;7.80;1.00
20650;DHT22;10484;48.736;9.332;2022-11-02T03:49:51;7.80;1.00
20650;DHT22;10484;48.736;9.332;2022-11-02T03:52:25;7.80;1.00
20650;DHT22;10484;48.736;9.332;2022-11-02T03:57:41;7.80;1.00
20650;DHT22;10484;48.736;9.332;2022-11-02T04:00:17;7.90;1.00
20650;DHT22;10484;48.736;9.332;2022-11-02T04:02:46;7.90;1.00
20650;DHT22;10484;48.736;9.332;2022-11-02T04:05:12;7.90;1.00
20650;DHT22;10484;48.736;9.332;2022-11-02T04:07:41;7.80;1.00
20650;DHT22;10484;48.736;9.332;2022-11-02T04:10:27;7.80;1.00
20650;DHT22;10484;48.736;9.332;2022-11-02T04:12:53;7.80;1.00
20650;DHT22;10484;48.736;9.332;2022-11-02T04:15:37;7.80;1.00
20650;DHT22;10484;48.736;9.332;2022-11-02T04:18:03;7.80;1.00
20650;DHT22;10484;48.736;9.332;2022-11-02T04:20:50;7.80;1.00
20650;DHT22;10484;48.736;9.332;2022-11-02T04:23:16;7.80;1.00
20650;DHT22;10484;48.736;9.332;2022-11-02T04:26:01;7.80;1.00
20650;DHT22;10484;48.736;9.332;2022-11-02T04:28:26;7.80;1.00
20650;DHT22;10484;48.736;9.332;2022-11-02T04:30:52;7.80;1.00
20650;DHT22;10484;48.736;9.332;2022-11-02T04:33:17;7.80;1.00
20650;DHT22;10484;48.736;9.332;2022-11-02T04:36:00;7.80;1.00
20650;DHT22;10484;48.736;9.332;2022-11-02T04:38:29;7.80;1.00
20650;DHT22;10484;48.736;9.332;2022-11-02T04:41:09;7.80;1.00
20650;DHT22;10484;48.736;9.332;2022-11-02T04:43:54;7.80;1.00
20650;DHT22;10484;48.736;9.332;2022-11-02T04:46:21;7.70;1.00
20650;DHT22;10484;48.736;9.332;2022-11-02T04:48:47;7.70;1.00
20650;DHT22;10484;48.736;9.332;2022-11-02T04:51:13;7.70;1.00
20650;DHT22;10484;48.736;9.332;2022-11-02T04:53:39;7.70;1.00
20650;DHT22;10484;48.736;9.332;2022-11-02T04:56:05;7.70;1.00
20650;DHT22;10484;48.736;9.332;2022-11-02T04:58:30;7.70;1.00
20650;DHT22;10484;48.736;9.332;2022-11-02T05:00:56;7.60;1.00
20650;DHT22;10484;48.736;9.332;2022-11-02T05:03:22;7.60;1.00
20650;DHT22;10484;48.736;9.332;2022-11-02T05:05:52;7.70;1.00
20650;DHT22;10484;48.736;9.332;2022-11-02T05:08:18;7.70;1.00
20650;DHT22;10484;48.736;9.332;2022-11-02T05:10:43;7.70;1.00
20650;DHT22;10484;48.736;9.332;2022-11-02T05:13:09;7.60;1.00
20650;DHT22;10484;48.736;9.332;2022-11-02T05:15:38;7.60;1.00
20650;DHT22;10484;48.736;9.332;2022-11-02T05:18:03;7.60;1.00
20650;DHT22;10484;48.736;9.332;2022-11-02T05:20:29;7.60;1.00
20650;DHT22;10484;48.736;9.332;2022-11-02T05:22:54;7.60;1.00
20650;DHT22;10484;48.736;9.332;2022-11-02T05:25:20;7.60;1.00
20650;DHT22;10484;48.736;9.332;2022-11-02T05:27:46;7.60;1.00
20650;DHT22;10484;48.736;9.332;2022-11-02T05:30:12;7.50;1.00
20650;DHT22;10484;48.736;9.332;2022-11-02T05:32:37;7.50;1.00
20650;DHT22;10484;48.736;9.332;2022-11-02T05:35:04;7.50;1.00
20650;DHT22;10484;48.736;9.332;2022-11-02T05:37:29;7.50;1.00
20650;DHT22;10484;48.736;9.332;2022-11-02T05:39:55;7.50;1.00
20650;DHT22;10484;48.736;9.332;2022-11-02T05:42:22;7.40;1.00
20650;DHT22;10484;48.736;9.332;2022-11-02T05:44:48;7.40;1.00
20650;DHT22;10484;48.736;9.332;2022-11-02T05:47:13;7.40;1.00
20650;DHT22;10484;48.736;9.332;2022-11-02T05:49:39;7.40;1.00
20650;DHT22;10484;48.736;9.332;2022-11-02T05:52:05;7.40;1.00
20650;DHT22;10484;48.736;9.332;2022-11-02T05:54:30;7.40;1.00
20650;DHT22;10484;48.736;9.332;2022-11-02T05:56:56;7.40;1.00
20650;DHT22;10484;48.736;9.332;2022-11-02T05:59:21;7.40;1.00
20650;DHT22;10484;48.736;9.332;2022-11-02T06:01:47;7.40;1.00
20650;DHT22;10484;48.736;9.332;2022-11-02T06:04:13;7.40;1.00
20650;DHT22;10484;48.736;9.332;2022-11-02T06:06:38;7.40;1.00
20650;DHT22;10484;48.736;9.332;2022-11-02T06:09:04;7.30;1.00
20650;DHT22;10484;48.736;9.332;2022-11-02T06:11:30;7.30;1.00
20650;DHT22;10484;48.736;9.332;2022-11-02T06:13:55;7.30;1.00
20650;DHT22;10484;48.736;9.332;2022-11-02T06:16:21;7.30;1.00
20650;DHT22;10484;48.736;9.332;2022-11-02T06:18:47;7.20;1.00
20650;DHT22;10484;48.736;9.332;2022-11-02T06:21:12;7.30;1.00
20650;DHT22;10484;48.736;9.332;2022-11-02T06:23:39;7.20;1.00
20650;DHT22;10484;48.736;9.332;2022-11-02T06:26:04;7.20;1.00
20650;DHT22;10484;48.736;9.332;2022-11-02T06:28:30;7.20;1.00
20650;DHT22;10484;48.736;9.332;2022-11-02T06:30:56;7.20;1.00
20650;DHT22;10484;48.736;9.332;2022-11-02T06:33:21;7.20;1.00
20650;DHT22;10484;48.736;9.332;2022-11-02T06:35:49;7.20;1.00
20650;DHT22;10484;48.736;9.332;2022-11-02T06:38:16;7.20;1.00
20650;DHT22;10484;48.736;9.332;2022-11-02T06:40:43;7.20;1.00
20650;DHT22;10484;48.736;9.332;2022-11-02T06:43:09;7.20;1.00
20650;DHT22;10484;48.736;9.332;2022-11-02T06:45:36;7.20;1.00
20650;DHT22;10484;48.736;9.332;2022-11-02T06:48:01;7.30;1.00
20650;DHT22;10484;48.736;9.332;2022-11-02T06:50:27;7.30;1.00
20650;DHT22;10484;48.736;9.332;2022-11-02T06:52:54;7.30;1.00
20650;DHT22;10484;48.736;9.332;2022-11-02T06:55:19;7.40;1.00
20650;DHT22;10484;48.736;9.332;2022-11-02T06:57:45;7.40;1.00
20650;DHT22;10484;48.736;9.332;2022-11-02T07:00:12;7.40;1.00
20650;DHT22;10484;48.736;9.332;2022-11-02T07:02:41;7.50;1.00
20650;DHT22;10484;48.736;9.332;2022-11-02T07:05:07;7.50;1.00
20650;DHT22;10484;48.736;9.332;2022-11-02T07:07:33;7.60;1.00
20650;DHT22;10484;48.736;9.332;2022-11-02T07:09:59;7.60;1.00
20650;DHT22;10484;48.736;9.332;2022-11-02T07:12:24;7.70;1.00
20650;DHT22;10484;48.736;9.332;2022-11-02T07:14:50;7.70;1.00
20650;DHT22;10484;48.736;9.332;2022-11-02T07:17:16;7.80;1.00
20650;DHT22;10484;48.736;9.332;2022-11-02T07:19:41;7.80;1.00
20650;DHT22;10484;48.736;9.332;2022-11-02T07:22:07;7.80;1.00
20650;DHT22;10484;48.736;9.332;2022-11-02T07:24:33;7.90;1.00
20650;DHT22;10484;48.736;9.332;2022-11-02T07:26:59;7.90;1.00
20650;DHT22;10484;48.736;9.332;2022-11-02T07:29:24;8.00;1.00
20650;DHT22;10484;48.736;9.332;2022-11-02T07:31:50;8.00;1.00
20650;DHT22;10484;48.736;9.332;2022-11-02T07:34:16;8.00;1.00
20650;DHT22;10484;48.736;9.332;2022-11-02T07:36:41;8.10;1.00
20650;DHT22;10484;48.736;9.332;2022-11-02T07:39:07;8.10;1.00
20650;DHT22;10484;48.736;9.332;2022-11-02T07:41:34;8.10;1.00
20650;DHT22;10484;48.736;9.332;2022-11-02T07:44:00;8.10;1.00
20650;DHT22;10484;48.736;9.332;2022-11-02T07:46:25;8.20;1.00
20650;DHT22;10484;48.736;9.332;2022-11-02T07:48:51;8.20;1.00
20650;DHT22;10484;48.736;9.332;2022-11-02T07:51:17;8.30;1.00
20650;DHT22;10484;48.736;9.332;2022-11-02T07:53:42;8.30;1.00
20650;DHT22;10484;48.736;9.332;2022-11-02T07:56:08;8.30;1.00
20650;DHT22;10484;48.736;9.332;2022-11-02T07:58:35;8.40;1.00
20650;DHT22;10484;48.736;9.332;2022-11-02T08:01:00;8.40;1.00
20650;DHT22;10484;48.736;9.332;2022-11-02T08:03:27;8.40;1.00
20650;DHT22;10484;48.736;9.332;2022-11-02T08:05:53;8.50;1.00
20650;DHT22;10484;48.736;9.332;2022-11-02T08:08:21;8.50;1.00
20650;DHT22;10484;48.736;9.332;2022-11-02T08:10:48;8.50;1.00
20650;DHT22;10484;48.736;9.332;2022-11-02T08:13:21;8.50;1.00
20650;DHT22;10484;48.736;9.332;2022-11-02T08:15:53;8.50;1.00
20650;DHT22;10484;48.736;9.332;2022-11-02T08:18:21;8.60;1.00
20650;DHT22;10484;48.736;9.332;2022-11-02T08:20:47;8.60;1.00
20650;DHT22;10484;48.736;9.332;2022-11-02T08:23:15;8.60;1.00
20650;DHT22;10484;48.736;9.332;2022-11-02T08:25:42;8.70;1.00
20650;DHT22;10484;48.736;9.332;2022-11-02T08:28:12;8.70;1.00
20650;DHT22;10484;48.736;9.332;2022-11-02T08:30:38;8.80;1.00
20650;DHT22;10484;48.736;9.332;2022-11-02T08:33:10;8.80;1.00
20650;DHT22;10484;48.736;9.332;2022-11-02T08:35:37;8.80;1.00
20650;DHT22;10484;48.736;9.332;2022-11-02T08:38:04;8.90;1.00
20650;DHT22;10484;48.736;9.332;2022-11-02T08:40:31;8.90;1.00
20650;DHT22;10484;48.736;9.332;2022-11-02T08:43:01;9.00;1.00
20650;DHT22;10484;48.736;9.332;2022-11-02T08:45:29;9.10;1.00
20650;DHT22;10484;48.736;9.332;2022-11-02T08:47:55;9.20;1.00
20650;DHT22;10484;48.736;9.332;2022-11-02T08:50:22;9.20;1.00
20650;DHT22;10484;48.736;9.332;2022-11-02T08:52:48;9.30;1.00
20650;DHT22;10484;48.736;9.332;2022-11-02T08:55:14;9.40;1.00
20650;DHT22;10484;48.736;9.332;2022-11-02T08:57:58;9.50;1.00
20650;DHT22;10484;48.736;9.332;2022-11-02T09:00:27;9.60;1.00
20650;DHT22;10484;48.736;9.332;2022-11-02T09:05:33;9.70;1.00
20650;DHT22;10484;48.736;9.332;2022-11-02T09:08:01;9.80;1.00
20650;DHT22;10484;48.736;9.332;2022-11-02T09:10:28;9.90;1.00
20650;DHT22;10484;48.736;9.332;2022-11-02T09:12:54;9.90;1.00
20650;DHT22;10484;48.736;9.332;2022-11-02T09:15:20;10.00;1.00
20650;DHT22;10484;48.736;9.332;2022-11-02T09:17:47;10.10;1.00
20650;DHT22;10484;48.736;9.332;2022-11-02T09:20:14;10.20;1.00
20650;DHT22;10484;48.736;9.332;2022-11-02T09:22:40;10.30;1.00
20650;DHT22;10484;48.736;9.332;2022-11-02T09:25:06;10.30;1.00
20650;DHT22;10484;48.736;9.332;2022-11-02T09:27:32;10.40;1.00
20650;DHT22;10484;48.736;9.332;2022-11-02T09:29:57;10.40;1.00
20650;DHT22;10484;48.736;9.332;2022-11-02T09:32:23;10.50;1.00
20650;DHT22;10484;48.736;9.332;2022-11-02T09:34:49;10.60;1.00
20650;DHT22;10484;48.736;9.332;2022-11-02T09:37:15;10.60;1.00
20650;DHT22;10484;48.736;9.332;2022-11-02T09:39:41;10.70;1.00
20650;DHT22;10484;48.736;9.332;2022-11-02T09:42:18;10.70;1.00
20650;DHT22;10484;48.736;9.332;2022-11-02T09:44:53;10.80;1.00
20650;DHT22;10484;48.736;9.332;2022-11-02T09:47:21;10.90;1.00
20650;DHT22;10484;48.736;9.332;2022-11-02T09:49:48;10.90;1.00
20650;DHT22;10484;48.736;9.332;2022-11-02T09:52:27;10.90;1.00
20650;DHT22;10484;48.736;9.332;2022-11-02T09:54:57;11.00;1.00
20650;DHT22;10484;48.736;9.332;2022-11-02T09:57:29;11.10;1.00
20650;DHT22;10484;48.736;9.332;2022-11-02T09:59:56;11.10;1.00
20650;DHT22;10484;48.736;9.332;2022-11-02T10:14:29;11.50;1.00
20650;DHT22;10484;48.736;9.332;2022-11-02T10:17:17;11.50;1.00
20650;DHT22;10484;48.736;9.332;2022-11-02T10:19:49;11.60;1.00
20650;DHT22;10484;48.736;9.332;2022-11-02T10:22:16;11.60;1.00
20650;DHT22;10484;48.736;9.332;2022-11-02T10:24:44;11.70;1.00
20650;DHT22;10484;48.736;9.332;2022-11-02T10:32:23;11.90;1.00
20650;DHT22;10484;48.736;9.332;2022-11-02T10:34:49;11.90;1.00
20650;DHT22;10484;48.736;9.332;2022-11-02T10:43:23;12.10;1.00
20650;DHT22;10484;48.736;9.332;2022-11-02T10:45:59;12.20;1.00
20650;DHT22;10484;48.736;9.332;2022-11-02T10:51:14;12.30;1.00
20650;DHT22;10484;48.736;9.332;2022-11-02T10:53:44;12.30;1.00
20650;DHT22;10484;48.736;9.332;2022-11-02T10:59:16;12.40;1.00
20650;DHT22;10484;48.736;9.332;2022-11-02T11:04:28;12.50;1.00
20650;DHT22;10484;48.736;9.332;2022-11-02T11:06:55;12.50;1.00
20650;DHT22;10484;48.736;9.332;2022-11-02T11:09:37;12.60;1.00
20650;DHT22;10484;48.736;9.332;2022-11-02T11:12:06;12.60;1.00
20650;DHT22;10484;48.736;9.332;2022-11-02T11:14:45;12.60;1.00
20650;DHT22;10484;48.736;9.332;2022-11-02T11:17:20;12.70;1.00
20650;DHT22;10484;48.736;9.332;2022-11-02T11:19:50;12.70;1.00
20650;DHT22;10484;48.736;9.332;2022-11-02T11:22:31;12.70;1.00
20650;DHT22;10484;48.736;9.332;2022-11-02T11:25:22;12.80;1.00
20650;DHT22;10484;48.736;9.332;2022-11-02T11:27:53;12.80;1.00
20650;DHT22;10484;48.736;9.332;2022-11-02T11:32:51;12.90;1.00
20650;DHT22;10484;48.736;9.332;2022-11-02T11:35:18;12.90;1.00
20650;DHT22;10484;48.736;9.332;2022-11-02T11:37:49;12.90;1.00
20650;DHT22;10484;48.736;9.332;2022-11-02T11:40:18;12.90;1.00
20650;DHT22;10484;48.736;9.332;2022-11-02T11:42:48;13.00;1.00
20650;DHT22;10484;48.736;9.332;2022-11-02T11:45:29;13.00;1.00
20650;DHT22;10484;48.736;9.332;2022-11-02T11:47:57;13.00;1.00
20650;DHT22;10484;48.736;9.332;2022-11-02T11:50:25;13.10;1.00
20650;DHT22;10484;48.736;9.332;2022-11-02T11:53:17;13.10;1.00
20650;DHT22;10484;48.736;9.332;2022-11-02T11:55:52;13.20;1.00
20650;DHT22;10484;48.736;9.332;2022-11-02T11:58:28;13.20;1.00
20650;DHT22;10484;48.736;9.332;2022-11-02T12:03:31;13.30;1.00
20650;DHT22;10484;48.736;9.332;2022-11-02T12:08:40;13.50;1.00
20650;DHT22;10484;48.736;9.332;2022-11-02T12:16:52;13.70;1.00
20650;DHT22;10484;48.736;9.332;2022-11-02T12:22:04;13.90;1.00
20650;DHT22;10484;48.736;9.332;2022-11-02T12:27:42;14.00;1.00
20650;DHT22;10484;48.736;9.332;2022-11-02T12:30:14;14.10;1.00
20650;DHT22;10484;48.736;9.332;2022-11-02T12:41:12;14.30;1.00
20650;DHT22;10484;48.736;9.332;2022-11-02T12:43:43;14.40;1.00
20650;DHT22;10484;48.736;9.332;2022-11-02T12:49:26;14.60;1.00
20650;DHT22;10484;48.736;9.332;2022-11-02T12:54:46;14.70;1.00
20650;DHT22;10484;48.736;9.332;2022-11-02T12:57:15;14.80;1.00
20650;DHT22;10484;48.736;9.332;2022-11-02T12:59:42;14.80;1.00
20650;DHT22;10484;48.736;9.332;2022-11-02T13:02:23;14.90;1.00
20650;DHT22;10484;48.736;9.332;2022-11-02T13:10:39;15.10;1.00
20650;DHT22;10484;48.736;9.332;2022-11-02T13:13:28;15.20;1.00
20650;DHT22;10484;48.736;9.332;2022-11-02T13:15:54;15.30;1.00
20650;DHT22;10484;48.736;9.332;2022-11-02T13:18:24;15.30;1.00
20650;DHT22;10484;48.736;9.332;2022-11-02T13:20:54;15.40;1.00
20650;DHT22;10484;48.736;9.332;2022-11-02T13:26:01;15.40;1.00
20650;DHT22;10484;48.736;9.332;2022-11-02T13:28:37;15.50;1.00
20650;DHT22;10484;48.736;9.332;2022-11-02T13:33:53;15.60;1.00
20650;DHT22;10484;48.736;9.332;2022-11-02T13:36:20;15.50;1.00
20650;DHT22;10484;48.736;9.332;2022-11-02T13:39:00;15.60;1.00
20650;DHT22;10484;48.736;9.332;2022-11-02T13:42:16;15.60;1.00
20650;DHT22;10484;48.736;9.332;2022-11-02T13:50:16;15.70;1.00
20650;DHT22;10484;48.736;9.332;2022-11-02T13:52:49;15.70;1.00
20650;DHT22;10484;48.736;9.332;2022-11-02T13:55:21;15.80;1.00
20650;DHT22;10484;48.736;9.332;2022-11-02T13:57:58;15.80;1.00
20650;DHT22;10484;48.736;9.332;2022-11-02T14:00:35;15.90;1.00
20650;DHT22;10484;48.736;9.332;2022-11-02T14:03:25;15.90;1.00
20650;DHT22;10484;48.736;9.332;2022-11-02T14:05:55;15.90;1.00
20650;DHT22;10484;48.736;9.332;2022-11-02T14:08:50;16.00;1.00
20650;DHT22;10484;48.736;9.332;2022-11-02T14:38:17;16.20;1.00
20650;DHT22;10484;48.736;9.332;2022-11-02T14:48:43;16.10;1.00
20650;DHT22;10484;48.736;9.332;2022-11-02T14:51:36;16.20;1.00
20650;DHT22;10484;48.736;9.332;2022-11-02T14:56:52;16.10;1.00
20650;DHT22;10484;48.736;9.332;2022-11-02T14:59:28;16.00;1.00
20650;DHT22;10484;48.736;9.332;2022-11-02T15:02:01;15.90;1.00
20650;DHT22;10484;48.736;9.332;2022-11-02T15:04:28;15.80;1.00
20650;DHT22;10484;48.736;9.332;2022-11-02T15:06:56;15.70;1.00
20650;DHT22;10484;48.736;9.332;2022-11-02T15:09:57;15.60;1.00
20650;DHT22;10484;48.736;9.332;2022-11-02T15:23:04;15.40;1.00
20650;DHT22;10484;48.736;9.332;2022-11-02T15:25:39;15.40;1.00
20650;DHT22;10484;48.736;9.332;2022-11-02T15:28:27;15.40;1.00
20650;DHT22;10484;48.736;9.332;2022-11-02T15:31:00;15.50;1.00
20650;DHT22;10484;48.736;9.332;2022-11-02T15:35:57;15.50;1.00
20650;DHT22;10484;48.736;9.332;2022-11-02T15:38:27;15.50;1.00
20650;DHT22;10484;48.736;9.332;2022-11-02T15:47:27;15.40;1.00
20650;DHT22;10484;48.736;9.332;2022-11-02T15:50:03;15.40;1.00
20650;DHT22;10484;48.736;9.332;2022-11-02T15:58:25;15.20;1.00
20650;DHT22;10484;48.736;9.332;2022-11-02T16:03:49;15.10;1.00
20650;DHT22;10484;48.736;9.332;2022-11-02T16:06:24;15.00;1.00
20650;DHT22;10484;48.736;9.332;2022-11-02T16:08:50;15.00;1.00
20650;DHT22;10484;48.736;9.332;2022-11-02T16:11:17;14.90;1.00
20650;DHT22;10484;48.736;9.332;2022-11-02T16:13:44;14.90;1.00
20650;DHT22;10484;48.736;9.332;2022-11-02T16:16:14;14.80;1.00
20650;DHT22;10484;48.736;9.332;2022-11-02T16:18:41;14.70;1.00
20650;DHT22;10484;48.736;9.332;2022-11-02T16:21:11;14.60;1.00
20650;DHT22;10484;48.736;9.332;2022-11-02T16:23:40;14.60;1.00
20650;DHT22;10484;48.736;9.332;2022-11-02T16:26:13;14.60;1.00
20650;DHT22;10484;48.736;9.332;2022-11-02T16:28:48;14.50;1.00
20650;DHT22;10484;48.736;9.332;2022-11-02T16:36:09;14.40;1.00
20650;DHT22;10484;48.736;9.332;2022-11-02T16:38:37;14.40;1.00
20650;DHT22;10484;48.736;9.332;2022-11-02T16:41:06;14.30;1.00
20650;DHT22;10484;48.736;9.332;2022-11-02T16:43:32;14.20;1.00
20650;DHT22;10484;48.736;9.332;2022-11-02T16:46:01;14.20;1.00
20650;DHT22;10484;48.736;9.332;2022-11-02T16:48:30;14.10;1.00
20650;DHT22;10484;48.736;9.332;2022-11-02T16:51:05;14.10;1.00
20650;DHT22;10484;48.736;9.332;2022-11-02T16:53:39;14.00;1.00
20650;DHT22;10484;48.736;9.332;2022-11-02T16:58:46;13.90;1.00
20650;DHT22;10484;48.736;9.332;2022-11-02T17:01:22;13.80;1.00
20650;DHT22;10484;48.736;9.332;2022-11-02T17:03:48;13.80;1.00
20650;DHT22;10484;48.736;9.332;2022-11-02T17:06:15;13.70;1.00
20650;DHT22;10484;48.736;9.332;2022-11-02T17:08:43;13.60;1.00
20650;DHT22;10484;48.736;9.332;2022-11-02T17:11:14;13.60;1.00
20650;DHT22;10484;48.736;9.332;2022-11-02T17:13:53;13.60;1.00
20650;DHT22;10484;48.736;9.332;2022-11-02T17:16:20;13.50;1.00
20650;DHT22;10484;48.736;9.332;2022-11-02T17:18:45;13.50;1.00
20650;DHT22;10484;48.736;9.332;2022-11-02T17:23:46;13.30;1.00
20650;DHT22;10484;48.736;9.332;2022-11-02T17:28:52;13.20;1.00
20650;DHT22;10484;48.736;9.332;2022-11-02T17:33:58;13.10;1.00
20650;DHT22;10484;48.736;9.332;2022-11-02T17:36:25;13.10;1.00
20650;DHT22;10484;48.736;9.332;2022-11-02T17:38:52;13.00;1.00
20650;DHT22;10484;48.736;9.332;2022-11-02T17:41:19;13.00;1.00
20650;DHT22;10484;48.736;9.332;2022-11-02T17:44:08;12.90;1.00
20650;DHT22;10484;48.736;9.332;2022-11-02T17:46:38;12.90;1.00
20650;DHT22;10484;48.736;9.332;2022-11-02T17:49:03;12.80;1.00
20650;DHT22;10484;48.736;9.332;2022-11-02T17:51:29;12.80;1.00
20650;DHT22;10484;48.736;9.332;2022-11-02T17:53:54;12.70;1.00
20650;DHT22;10484;48.736;9.332;2022-11-02T17:56:20;12.60;1.00
20650;DHT22;10484;48.736;9.332;2022-11-02T17:58:46;12.60;1.00
20650;DHT22;10484;48.736;9.332;2022-11-02T18:01:12;12.60;1.00
20650;DHT22;10484;48.736;9.332;2022-11-02T18:03:38;12.50;1.00
20650;DHT22;10484;48.736;9.332;2022-11-02T18:06:04;12.50;1.00
20650;DHT22;10484;48.736;9.332;2022-11-02T18:08:29;12.40;1.00
20650;DHT22;10484;48.736;9.332;2022-11-02T18:10:55;12.40;1.00
20650;DHT22;10484;48.736;9.332;2022-11-02T18:13:22;12.30;1.00
20650;DHT22;10484;48.736;9.332;2022-11-02T18:15:49;12.30;1.00
20650;DHT22;10484;48.736;9.332;2022-11-02T18:18:14;12.20;1.00
20650;DHT22;10484;48.736;9.332;2022-11-02T18:20:41;12.20;1.00
20650;DHT22;10484;48.736;9.332;2022-11-02T18:23:08;12.10;1.00
20650;DHT22;10484;48.736;9.332;2022-11-02T18:25:38;12.00;1.00
20650;DHT22;10484;48.736;9.332;2022-11-02T18:28:03;12.00;1.00
20650;DHT22;10484;48.736;9.332;2022-11-02T18:30:29;12.00;1.00
20650;DHT22;10484;48.736;9.332;2022-11-02T18:32:59;11.90;1.00
20650;DHT22;10484;48.736;9.332;2022-11-02T18:35:25;11.80;1.00
20650;DHT22;10484;48.736;9.332;2022-11-02T18:37:50;11.80;1.00
20650;DHT22;10484;48.736;9.332;2022-11-02T18:40:18;11.80;1.00
20650;DHT22;10484;48.736;9.332;2022-11-02T18:42:44;11.80;1.00
20650;DHT22;10484;48.736;9.332;2022-11-02T18:45:12;11.70;1.00
20650;DHT22;10484;48.736;9.332;2022-11-02T18:47:38;11.70;1.00
20650;DHT22;10484;48.736;9.332;2022-11-02T18:50:05;11.60;1.00
20650;DHT22;10484;48.736;9.332;2022-11-02T18:52:32;11.60;1.00
20650;DHT22;10484;48.736;9.332;2022-11-02T18:54:58;11.60;1.00
20650;DHT22;10484;48.736;9.332;2022-11-02T18:57:28;11.50;1.00
20650;DHT22;10484;48.736;9.332;2022-11-02T18:59:54;11.50;1.00
20650;DHT22;10484;48.736;9.332;2022-11-02T19:02:20;11.50;1.00
20650;DHT22;10484;48.736;9.332;2022-11-02T19:04:45;11.40;1.00
20650;DHT22;10484;48.736;9.332;2022-11-02T19:07:11;11.40;1.00
20650;DHT22;10484;48.736;9.332;2022-11-02T19:09:55;11.40;1.00
20650;DHT22;10484;48.736;9.332;2022-11-02T19:12:23;11.30;1.00
20650;DHT22;10484;48.736;9.332;2022-11-02T19:14:49;11.20;1.00
20650;DHT22;10484;48.736;9.332;2022-11-02T19:17:19;11.10;1.00
20650;DHT22;10484;48.736;9.332;2022-11-02T19:19:45;11.10;1.00
20650;DHT22;10484;48.736;9.332;2022-11-02T19:22:19;11.10;1.00
20650;DHT22;10484;48.736;9.332;2022-11-02T19:24:45;11.10;1.00
20650;DHT22;10484;48.736;9.332;2022-11-02T19:27:14;11.00;1.00
20650;DHT22;10484;48.736;9.332;2022-11-02T19:29:40;11.00;1.00